Alts de San Benito, Puerto Rico
Current Conditions -  °F | °C
As of 10:21 AM on Monday 22 Dec 2014 (Local Time) from TJNR Reporting Station
Scattered Clouds Scattered Clouds  
Wind Chill: 82°   Ceiling: Unl
Heat Index: 86°   Visibility: 10mi
Dew Point: 71°   Wind: 10mph
Humidity: 69%   Direction: 100°E
Pressure: 30.11"   Gusts: NA
Location:  18.1494°N, 65.8294°W
Report Text: TJNR 221421Z AUTO 10009KT 10SM SCT021 28/22 A3011 RMK AO2 T02780217
Loading
Personal Weather Stations






























Interactive Weather Map New forecast layout! Learn more

10-Day Weather Forecast

Advertisements
Track Severe Weather on mobile